createdAt,value
2023-07-16T00:00:28.355Z,64.33
2023-07-16T00:01:01.070Z,65.00
2023-07-16T00:01:36.572Z,65.00
2023-07-16T00:02:12.201Z,64.33
2023-07-16T00:02:45.139Z,63.67
2023-07-16T00:03:17.824Z,63.00
2023-07-16T00:03:50.687Z,63.00
2023-07-16T00:04:26.192Z,63.00
2023-07-16T00:04:58.742Z,63.00
2023-07-16T00:05:30.754Z,62.67
2023-07-16T00:06:03.075Z,62.00
2023-07-16T00:06:35.401Z,62.00
2023-07-16T00:07:07.402Z,62.67
2023-07-16T00:07:39.448Z,63.00
2023-07-16T00:08:14.874Z,63.33
2023-07-16T00:08:47.053Z,64.00
2023-07-16T00:09:19.391Z,64.67
2023-07-16T00:09:51.390Z,65.00
2023-07-16T00:10:23.460Z,65.00
2023-07-16T00:10:55.655Z,65.33
2023-07-16T00:11:30.651Z,66.67
2023-07-16T00:12:04.870Z,68.00
2023-07-16T00:12:36.896Z,68.00
2023-07-16T00:13:10.543Z,68.00
2023-07-16T00:13:43.613Z,68.00
2023-07-16T00:14:16.061Z,68.00
2023-07-16T00:14:49.152Z,68.00
2023-07-16T00:15:21.924Z,68.00
2023-07-16T00:15:54.207Z,68.00
2023-07-16T00:16:26.848Z,67.00
2023-07-16T00:16:59.616Z,67.00
2023-07-16T00:17:31.776Z,66.33
2023-07-16T00:18:04.079Z,63.33
2023-07-16T00:18:36.545Z,61.33
2023-07-16T00:19:10.709Z,60.00
2023-07-16T00:19:42.755Z,59.00
2023-07-16T00:20:14.757Z,59.00
2023-07-16T00:20:46.772Z,58.00
2023-07-16T00:21:18.882Z,57.33
2023-07-16T00:21:50.893Z,55.33
2023-07-16T00:22:22.925Z,54.00
2023-07-16T00:22:55.956Z,54.00
2023-07-16T00:23:28.157Z,54.00
2023-07-16T00:24:00.537Z,54.33
2023-07-16T00:24:32.563Z,55.00
2023-07-16T00:25:05.260Z,55.67
2023-07-16T00:25:38.578Z,56.00
2023-07-16T00:26:11.036Z,56.00
2023-07-16T00:26:43.428Z,56.00
2023-07-16T00:27:19.675Z,57.00
2023-07-16T00:27:51.734Z,57.00
2023-07-16T00:28:24.360Z,57.00
2023-07-16T00:28:59.354Z,57.00
2023-07-16T00:29:31.615Z,57.00
2023-07-16T00:30:04.670Z,57.33
2023-07-16T00:30:36.755Z,58.00
2023-07-16T00:31:09.044Z,59.00
2023-07-16T00:31:41.783Z,59.00
2023-07-16T00:32:14.822Z,59.00
2023-07-16T00:32:49.881Z,59.00
2023-07-16T00:33:22.289Z,58.67
2023-07-16T00:33:54.479Z,58.00
2023-07-16T00:34:32.444Z,58.00
2023-07-16T00:35:05.813Z,58.00
2023-07-16T00:35:37.813Z,58.00
2023-07-16T00:36:09.810Z,59.33
2023-07-16T00:36:42.650Z,62.33
2023-07-16T00:37:14.996Z,65.00
2023-07-16T00:37:47.498Z,66.67
2023-07-16T00:38:20.669Z,67.00
2023-07-16T00:38:52.683Z,67.00
2023-07-16T00:39:25.384Z,66.00
2023-07-16T00:39:57.391Z,66.00
2023-07-16T00:40:29.949Z,66.33
2023-07-16T00:41:02.011Z,67.00
2023-07-16T00:41:34.323Z,67.00
2023-07-16T00:42:06.874Z,67.00
2023-07-16T00:42:40.562Z,67.00
2023-07-16T00:43:13.385Z,67.00
2023-07-16T00:43:45.545Z,67.00
2023-07-16T00:44:17.598Z,67.67
2023-07-16T00:44:50.357Z,70.00
2023-07-16T00:45:22.420Z,72.67
2023-07-16T00:45:55.226Z,73.67
2023-07-16T00:46:28.033Z,73.00
2023-07-16T00:47:00.597Z,72.67
2023-07-16T00:47:32.843Z,72.00
2023-07-16T00:48:07.477Z,71.00
2023-07-16T00:48:41.408Z,70.67
2023-07-16T00:49:13.774Z,70.00
2023-07-16T00:49:47.261Z,70.00
2023-07-16T00:50:20.500Z,70.00
2023-07-16T00:50:54.782Z,69.33
2023-07-16T00:51:27.467Z,68.33
2023-07-16T00:52:00.754Z,66.67
2023-07-16T00:52:33.188Z,64.67
2023-07-16T00:53:06.276Z,63.67
2023-07-16T00:53:39.615Z,63.00
2023-07-16T00:54:12.661Z,63.00
2023-07-16T00:54:45.418Z,63.00
2023-07-16T00:55:24.090Z,63.33
2023-07-16T00:55:56.414Z,64.00
2023-07-16T00:56:31.623Z,64.00
2023-07-16T00:57:04.438Z,65.00
2023-07-16T00:57:39.804Z,65.00
2023-07-16T00:58:14.148Z,65.00
2023-07-16T00:58:49.402Z,65.00
2023-07-16T00:59:22.277Z,64.33
2023-07-16T00:59:54.937Z,64.00
2023-07-16T01:00:27.470Z,64.00
2023-07-16T01:01:00.034Z,63.33
2023-07-16T01:01:32.325Z,62.67
2023-07-16T01:02:05.064Z,61.67
2023-07-16T01:02:37.656Z,60.33
2023-07-16T01:03:13.918Z,59.33
2023-07-16T01:03:49.242Z,58.00
2023-07-16T01:04:22.264Z,57.67
2023-07-16T01:04:54.697Z,57.00
2023-07-16T01:05:42.557Z,57.00
2023-07-16T01:06:23.743Z,57.00
2023-07-16T01:07:02.441Z,57.00
2023-07-16T01:07:40.586Z,57.67
2023-07-16T01:08:15.495Z,58.00
2023-07-16T01:08:51.283Z,59.00
2023-07-16T01:09:23.471Z,59.00
2023-07-16T01:09:56.188Z,60.00
2023-07-16T01:10:30.278Z,60.00
2023-07-16T01:11:05.103Z,61.00
2023-07-16T01:11:42.729Z,61.67
2023-07-16T01:12:14.973Z,62.00
2023-07-16T01:12:53.396Z,62.00
2023-07-16T01:13:27.728Z,62.00
2023-07-16T01:14:01.110Z,61.67
2023-07-16T01:14:33.921Z,61.00
2023-07-16T01:15:07.008Z,61.00
2023-07-16T01:15:39.069Z,61.00
2023-07-16T01:16:20.277Z,60.67
2023-07-16T01:16:52.602Z,60.33
2023-07-16T01:17:30.898Z,61.00
2023-07-16T01:18:05.348Z,61.67
2023-07-16T01:18:37.788Z,62.00
2023-07-16T01:19:10.574Z,62.00
2023-07-16T01:19:45.545Z,63.00
2023-07-16T01:20:17.768Z,63.00
2023-07-16T01:20:49.854Z,63.00
2023-07-16T01:21:24.727Z,63.00
2023-07-16T01:22:17.471Z,63.00
2023-07-16T01:23:21.639Z,64.00
2023-07-16T01:24:41.360Z,65.00
2023-07-16T01:25:54.878Z,66.00
2023-07-16T01:26:41.768Z,66.00
2023-07-16T01:27:45.196Z,66.00
2023-07-16T01:28:39.993Z,66.00
2023-07-16T01:29:34.234Z,65.33
2023-07-16T01:30:10.266Z,65.00
2023-07-16T01:30:45.932Z,65.00
2023-07-16T01:31:18.875Z,65.00
2023-07-16T01:31:52.004Z,65.00
2023-07-16T01:32:27.157Z,65.00
2023-07-16T01:33:01.692Z,64.00
2023-07-16T01:33:35.690Z,64.00
2023-07-16T01:34:08.475Z,64.00
2023-07-16T01:34:46.051Z,64.67
2023-07-16T01:35:18.996Z,65.00
2023-07-16T01:35:53.176Z,65.00
2023-07-16T01:36:26.096Z,68.00
2023-07-16T01:36:58.083Z,69.00
2023-07-16T01:37:32.570Z,68.67
2023-07-16T01:38:06.012Z,68.00
2023-07-16T01:38:38.571Z,68.00
2023-07-16T01:39:10.927Z,68.00
2023-07-16T01:39:44.323Z,68.00
2023-07-16T01:40:20.140Z,68.00
2023-07-16T01:40:52.443Z,67.67
2023-07-16T01:41:24.748Z,67.00
2023-07-16T01:41:56.946Z,67.00
2023-07-16T01:42:30.104Z,67.00
2023-07-16T01:43:02.140Z,67.00
2023-07-16T01:43:34.190Z,67.00
2023-07-16T01:44:07.082Z,67.00
2023-07-16T01:44:40.573Z,67.00
2023-07-16T01:45:12.605Z,67.00
2023-07-16T01:45:44.731Z,66.67
2023-07-16T01:46:16.980Z,65.33
2023-07-16T01:47:05.263Z,64.33
2023-07-16T01:47:50.934Z,63.33
2023-07-16T01:48:31.714Z,63.00
2023-07-16T01:49:03.907Z,63.00
2023-07-16T01:49:36.022Z,63.00
2023-07-16T01:50:09.492Z,63.00
2023-07-16T01:50:42.193Z,63.00
2023-07-16T01:51:17.841Z,63.00
2023-07-16T01:51:50.034Z,63.00
2023-07-16T01:52:22.643Z,63.67
2023-07-16T01:52:55.270Z,64.00
2023-07-16T01:53:27.843Z,64.00
2023-07-16T01:54:00.126Z,64.33
2023-07-16T01:54:32.628Z,65.00
2023-07-16T01:55:06.072Z,65.00
2023-07-16T01:55:38.848Z,65.00
2023-07-16T01:56:11.342Z,64.00
2023-07-16T01:56:44.456Z,63.67
2023-07-16T01:57:16.920Z,63.00
2023-07-16T01:57:49.433Z,63.00
2023-07-16T01:58:22.777Z,62.33
2023-07-16T01:59:02.530Z,62.00
2023-07-16T01:59:34.876Z,62.33
2023-07-16T02:00:09.920Z,63.00
2023-07-16T02:00:46.118Z,63.00
2023-07-16T02:01:26.097Z,63.00
2023-07-16T02:01:58.521Z,63.00
2023-07-16T02:02:30.850Z,62.67
2023-07-16T02:03:03.557Z,62.00
2023-07-16T02:03:35.826Z,60.67
2023-07-16T02:04:07.913Z,59.33
2023-07-16T02:04:40.384Z,59.00
2023-07-16T02:05:12.479Z,58.33
2023-07-16T02:05:44.503Z,58.00
2023-07-16T02:06:16.865Z,58.00
2023-07-16T02:06:51.388Z,58.00
2023-07-16T02:07:23.661Z,58.00
2023-07-16T02:07:55.765Z,59.33
2023-07-16T02:08:27.919Z,60.67
2023-07-16T02:08:59.957Z,61.67
2023-07-16T02:09:32.295Z,62.67
2023-07-16T02:10:05.228Z,63.00
2023-07-16T02:10:37.578Z,63.00
2023-07-16T02:11:09.572Z,62.00
2023-07-16T02:11:41.612Z,61.00
2023-07-16T02:12:13.663Z,61.00
2023-07-16T02:12:45.869Z,61.00
2023-07-16T02:13:20.588Z,61.00
2023-07-16T02:13:52.642Z,61.00
2023-07-16T02:14:24.871Z,61.00
2023-07-16T02:14:57.009Z,61.33
2023-07-16T02:15:30.953Z,62.00
2023-07-16T02:16:03.355Z,63.00
2023-07-16T02:16:36.173Z,63.00
2023-07-16T02:17:10.831Z,63.00
2023-07-16T02:17:45.941Z,63.00
2023-07-16T02:18:18.051Z,63.00
2023-07-16T02:18:50.705Z,62.67
2023-07-16T02:19:22.984Z,62.00
2023-07-16T02:19:55.102Z,62.00
2023-07-16T02:20:27.214Z,62.00
2023-07-16T02:20:59.325Z,61.00
2023-07-16T02:21:31.319Z,61.00
2023-07-16T02:22:03.448Z,61.00
2023-07-16T02:22:37.063Z,61.00
2023-07-16T02:23:09.140Z,60.33
2023-07-16T02:23:41.477Z,61.00
2023-07-16T02:24:13.728Z,61.00
2023-07-16T02:24:46.293Z,60.00
2023-07-16T02:25:18.535Z,60.00
2023-07-16T02:25:50.565Z,60.00
2023-07-16T02:26:22.906Z,59.67
2023-07-16T02:26:54.889Z,59.00
2023-07-16T02:27:26.876Z,59.00
2023-07-16T02:27:58.913Z,58.67
2023-07-16T02:28:30.988Z,58.00
2023-07-16T02:29:03.107Z,58.00
2023-07-16T02:29:35.125Z,57.00
2023-07-16T02:30:08.102Z,56.00
2023-07-16T02:30:44.036Z,56.00
2023-07-16T02:31:16.435Z,55.00
2023-07-16T02:31:48.595Z,55.00
2023-07-16T02:32:20.740Z,54.00
2023-07-16T02:32:52.854Z,54.00
2023-07-16T02:33:24.996Z,54.00
2023-07-16T02:33:57.068Z,54.00
2023-07-16T02:34:29.094Z,54.00
2023-07-16T02:35:01.745Z,54.00
2023-07-16T02:35:35.020Z,54.00
2023-07-16T02:36:07.068Z,53.33
2023-07-16T02:36:39.106Z,53.00
2023-07-16T02:37:11.243Z,52.00
2023-07-16T02:37:43.189Z,52.00
2023-07-16T02:38:15.569Z,52.00
2023-07-16T02:38:48.010Z,52.00
2023-07-16T02:39:20.235Z,52.00
2023-07-16T02:39:55.612Z,52.00
2023-07-16T02:40:31.130Z,52.33
2023-07-16T02:41:03.183Z,53.00
2023-07-16T02:41:35.204Z,53.67
2023-07-16T02:42:07.310Z,54.00
2023-07-16T02:42:39.362Z,54.00
2023-07-16T02:43:11.610Z,54.00
2023-07-16T02:43:43.632Z,54.00
2023-07-16T02:44:15.711Z,54.00
2023-07-16T02:44:47.772Z,54.33
2023-07-16T02:45:20.359Z,55.00
2023-07-16T02:45:53.823Z,56.33
2023-07-16T02:46:26.365Z,57.00
2023-07-16T02:46:58.717Z,57.00
2023-07-16T02:47:30.829Z,58.00
2023-07-16T02:48:03.632Z,59.00
2023-07-16T02:48:35.747Z,59.67
2023-07-16T02:49:07.790Z,60.00
2023-07-16T02:49:41.402Z,60.00
2023-07-16T02:50:13.559Z,60.00
2023-07-16T02:50:46.063Z,61.00
2023-07-16T02:51:18.586Z,61.00
2023-07-16T02:51:51.153Z,61.00
2023-07-16T02:52:23.510Z,62.00
2023-07-16T02:52:55.659Z,62.00
2023-07-16T02:53:27.886Z,62.00
2023-07-16T02:54:00.237Z,62.00
2023-07-16T02:54:32.233Z,62.00
2023-07-16T02:55:04.980Z,62.00
2023-07-16T02:55:37.164Z,62.00
2023-07-16T02:56:09.361Z,62.67
2023-07-16T02:56:41.386Z,62.67
2023-07-16T02:57:13.412Z,62.33
2023-07-16T02:57:45.665Z,62.00
2023-07-16T02:58:17.636Z,62.00
2023-07-16T02:58:49.660Z,62.00
2023-07-16T02:59:21.749Z,62.33
2023-07-16T02:59:53.779Z,63.00
2023-07-16T03:00:25.794Z,63.33
2023-07-16T03:00:59.374Z,64.00
2023-07-16T03:01:31.652Z,64.00
2023-07-16T03:02:04.152Z,63.33
2023-07-16T03:02:36.378Z,63.00
2023-07-16T03:03:08.507Z,63.00
2023-07-16T03:03:40.869Z,63.00
2023-07-16T03:04:13.020Z,63.00
2023-07-16T03:04:45.098Z,62.33
2023-07-16T03:05:17.509Z,61.67
2023-07-16T03:05:49.534Z,60.33
2023-07-16T03:06:22.845Z,59.33
2023-07-16T03:06:55.393Z,60.00
2023-07-16T03:07:27.389Z,60.00
2023-07-16T03:07:59.450Z,60.00
2023-07-16T03:08:31.444Z,60.00
2023-07-16T03:09:04.222Z,60.00
2023-07-16T03:09:36.217Z,60.00
2023-07-16T03:10:08.837Z,60.00
2023-07-16T03:10:41.172Z,60.00
2023-07-16T03:11:13.519Z,60.00
2023-07-16T03:11:45.562Z,60.00
2023-07-16T03:12:17.604Z,60.00
2023-07-16T03:12:49.802Z,58.67
2023-07-16T03:13:21.771Z,55.67
2023-07-16T03:13:53.758Z,50.00
2023-07-16T03:14:25.761Z,46.33
2023-07-16T03:14:57.861Z,46.00
2023-07-16T03:15:29.946Z,46.33
2023-07-16T03:16:03.462Z,47.00
2023-07-16T03:16:35.507Z,47.67
2023-07-16T03:17:07.685Z,48.00
2023-07-16T03:17:40.061Z,49.33
2023-07-16T03:18:12.188Z,50.00
2023-07-16T03:18:45.396Z,51.33
2023-07-16T03:19:17.501Z,52.00
2023-07-16T03:19:49.543Z,52.00
2023-07-16T03:20:21.601Z,52.00
2023-07-16T03:20:53.596Z,52.67
2023-07-16T03:21:25.602Z,53.00
2023-07-16T03:21:57.599Z,53.00
2023-07-16T03:22:29.780Z,53.00
2023-07-16T03:23:01.884Z,53.00
2023-07-16T03:23:33.978Z,53.33
2023-07-16T03:24:06.484Z,54.00
2023-07-16T03:24:38.752Z,55.00
2023-07-16T03:25:11.033Z,55.67
2023-07-16T03:25:43.152Z,57.33
2023-07-16T03:26:15.555Z,58.33
2023-07-16T03:26:47.852Z,59.00
2023-07-16T03:27:20.589Z,59.00
2023-07-16T03:27:54.098Z,60.00
2023-07-16T03:28:26.161Z,60.67
2023-07-16T03:28:58.287Z,62.33
2023-07-16T03:29:30.306Z,63.33
2023-07-16T03:30:02.578Z,65.33
2023-07-16T03:30:34.672Z,66.00
2023-07-16T03:31:08.328Z,65.67
2023-07-16T03:31:40.419Z,65.00
2023-07-16T03:32:12.409Z,63.67
2023-07-16T03:32:52.654Z,62.67
2023-07-16T03:33:25.193Z,62.00
2023-07-16T03:33:57.246Z,61.67
2023-07-16T03:34:29.306Z,61.00
2023-07-16T03:35:01.349Z,60.33
2023-07-16T03:35:33.394Z,59.33
2023-07-16T03:36:05.731Z,59.00
2023-07-16T03:36:37.725Z,59.00
2023-07-16T03:37:12.315Z,59.00
2023-07-16T03:37:44.383Z,59.00
2023-07-16T03:38:16.866Z,59.00
2023-07-16T03:38:48.896Z,59.00
2023-07-16T03:39:20.930Z,59.00
2023-07-16T03:39:53.040Z,59.00
2023-07-16T03:40:26.868Z,59.67
2023-07-16T03:40:58.937Z,60.00
2023-07-16T03:41:30.942Z,60.67
2023-07-16T03:42:03.089Z,61.33
2023-07-16T03:42:35.234Z,64.00
2023-07-16T03:43:07.332Z,64.00
2023-07-16T03:43:39.375Z,64.33
2023-07-16T03:44:11.600Z,65.00
2023-07-16T03:44:43.611Z,65.33
2023-07-16T03:45:15.717Z,66.00
2023-07-16T03:45:47.738Z,66.00
2023-07-16T03:46:21.240Z,66.67
2023-07-16T03:46:53.322Z,67.00
2023-07-16T03:47:25.436Z,67.33
2023-07-16T03:47:57.685Z,68.00
2023-07-16T03:48:29.840Z,68.00
2023-07-16T03:49:01.961Z,67.67
2023-07-16T03:49:34.033Z,68.00
2023-07-16T03:50:07.341Z,69.00
2023-07-16T03:50:39.391Z,70.67
2023-07-16T03:51:11.610Z,70.00
2023-07-16T03:51:43.739Z,70.00
2023-07-16T03:52:15.763Z,69.00
2023-07-16T03:52:48.725Z,69.00
2023-07-16T03:53:20.754Z,69.00
2023-07-16T03:53:52.811Z,68.00
2023-07-16T03:54:24.798Z,68.00
2023-07-16T03:54:56.869Z,68.00
2023-07-16T03:55:28.931Z,69.33
2023-07-16T03:56:00.997Z,70.00
2023-07-16T03:56:33.032Z,71.00
2023-07-16T03:57:05.767Z,71.00
2023-07-16T03:57:37.919Z,71.00
2023-07-16T03:58:09.953Z,71.00
2023-07-16T03:58:42.135Z,71.00
2023-07-16T03:59:14.130Z,71.00
2023-07-16T03:59:46.257Z,71.00
2023-07-16T04:00:18.942Z,71.00
2023-07-16T04:00:51.303Z,70.67
2023-07-16T04:01:25.109Z,70.00
2023-07-16T04:01:57.851Z,70.00
2023-07-16T04:02:30.412Z,70.00
2023-07-16T04:03:03.180Z,70.00
2023-07-16T04:03:35.998Z,70.00
2023-07-16T04:04:08.671Z,69.67
2023-07-16T04:04:41.376Z,69.00
2023-07-16T04:05:16.461Z,69.00
2023-07-16T04:05:48.676Z,68.33
2023-07-16T04:06:20.729Z,68.67
2023-07-16T04:06:52.894Z,69.00
2023-07-16T04:07:24.928Z,70.00
2023-07-16T04:07:57.323Z,71.33
2023-07-16T04:08:29.391Z,72.00
2023-07-16T04:09:01.435Z,72.00
2023-07-16T04:09:33.644Z,74.67
2023-07-16T04:10:08.799Z,76.33
2023-07-16T04:10:40.818Z,77.00
2023-07-16T04:11:12.887Z,77.00
2023-07-16T04:11:44.967Z,76.33
2023-07-16T04:12:17.031Z,76.00
2023-07-16T04:12:49.157Z,74.67
2023-07-16T04:13:21.192Z,74.00
2023-07-16T04:13:53.185Z,73.00
2023-07-16T04:14:25.184Z,71.67
2023-07-16T04:14:59.351Z,71.00
2023-07-16T04:15:31.384Z,70.67
2023-07-16T04:16:03.550Z,70.00
2023-07-16T04:16:37.202Z,69.67
2023-07-16T04:17:09.482Z,69.00
2023-07-16T04:17:41.757Z,69.00
2023-07-16T04:18:13.889Z,68.33
2023-07-16T04:18:45.947Z,68.00
2023-07-16T04:19:18.005Z,67.00
2023-07-16T04:19:50.081Z,66.33
2023-07-16T04:20:22.320Z,64.67
2023-07-16T04:20:54.484Z,63.00
2023-07-16T04:21:26.508Z,61.00
2023-07-16T04:21:58.545Z,61.00
2023-07-16T04:22:30.660Z,61.00
2023-07-16T04:23:02.798Z,61.33
2023-07-16T04:23:34.845Z,62.00
2023-07-16T04:24:07.580Z,62.67
2023-07-16T04:24:39.768Z,63.00
2023-07-16T04:25:14.878Z,63.67
2023-07-16T04:25:46.948Z,64.00
2023-07-16T04:26:19.372Z,63.67
2023-07-16T04:26:51.550Z,63.00
2023-07-16T04:27:23.585Z,63.00
2023-07-16T04:27:56.665Z,63.00
2023-07-16T04:28:28.940Z,63.00
2023-07-16T04:29:01.231Z,63.00
2023-07-16T04:29:37.201Z,63.00
2023-07-16T04:30:09.649Z,63.00
2023-07-16T04:30:42.271Z,61.67
2023-07-16T04:31:15.017Z,61.00
2023-07-16T04:31:48.850Z,61.00
2023-07-16T04:32:21.213Z,62.33
2023-07-16T04:32:53.681Z,63.67
2023-07-16T04:33:26.528Z,65.67
2023-07-16T04:33:58.618Z,67.00
2023-07-16T04:34:30.991Z,69.33
2023-07-16T04:35:03.389Z,70.67
2023-07-16T04:35:36.300Z,71.00
2023-07-16T04:36:08.579Z,70.00
2023-07-16T04:36:40.725Z,69.33
2023-07-16T04:37:13.053Z,68.00
2023-07-16T04:37:46.669Z,67.33
2023-07-16T04:38:19.006Z,67.00
2023-07-16T04:38:53.179Z,67.00
2023-07-16T04:39:26.602Z,66.67
2023-07-16T04:39:58.785Z,65.67
2023-07-16T04:40:31.137Z,65.00
2023-07-16T04:41:03.664Z,64.00
2023-07-16T04:41:35.738Z,62.67
2023-07-16T04:42:07.820Z,62.00
2023-07-16T04:42:39.997Z,61.33
2023-07-16T04:43:12.041Z,60.33
2023-07-16T04:43:44.118Z,58.67
2023-07-16T04:44:16.204Z,58.33
2023-07-16T04:44:48.230Z,59.00
2023-07-16T04:45:23.487Z,59.00
2023-07-16T04:45:55.489Z,59.00
2023-07-16T04:46:27.901Z,59.00
2023-07-16T04:47:01.343Z,59.00
2023-07-16T04:47:33.496Z,58.67
2023-07-16T04:48:06.246Z,57.67
2023-07-16T04:48:38.466Z,56.33
2023-07-16T04:49:10.582Z,56.00
2023-07-16T04:49:42.582Z,54.00
2023-07-16T04:50:14.624Z,50.33
2023-07-16T04:50:46.659Z,50.00
2023-07-16T04:51:18.723Z,50.00
2023-07-16T04:51:51.134Z,50.00
2023-07-16T04:52:23.302Z,49.00
2023-07-16T04:52:55.336Z,48.67
2023-07-16T04:53:27.670Z,46.67
2023-07-16T04:54:08.606Z,46.00
2023-07-16T04:54:40.837Z,46.00
2023-07-16T04:55:12.848Z,44.67
2023-07-16T04:55:44.952Z,43.67
2023-07-16T04:56:17.795Z,43.00
2023-07-16T04:56:50.002Z,42.33
2023-07-16T04:57:23.722Z,43.00
2023-07-16T04:57:56.091Z,43.67
2023-07-16T04:58:28.585Z,44.00
2023-07-16T04:59:00.631Z,44.00
2023-07-16T04:59:32.729Z,44.67
2023-07-16T05:00:05.954Z,45.00
2023-07-16T05:00:38.083Z,45.00
2023-07-16T05:01:10.910Z,44.00
2023-07-16T05:01:42.971Z,44.67
2023-07-16T05:02:16.420Z,44.67
2023-07-16T05:02:48.863Z,43.33
2023-07-16T05:03:20.986Z,42.00
2023-07-16T05:03:53.010Z,39.33
2023-07-16T05:04:25.089Z,37.67
2023-07-16T05:04:57.149Z,35.67
2023-07-16T05:05:29.383Z,34.33
2023-07-16T05:06:01.518Z,34.00
2023-07-16T05:06:33.556Z,33.33
2023-07-16T05:07:05.944Z,32.33
2023-07-16T05:07:37.965Z,32.00
2023-07-16T05:08:09.953Z,32.00
2023-07-16T05:08:41.956Z,32.00
2023-07-16T05:09:14.036Z,32.00
2023-07-16T05:09:46.039Z,32.00
2023-07-16T05:10:18.217Z,32.00
2023-07-16T05:10:50.221Z,32.00
2023-07-16T05:11:22.201Z,32.67
2023-07-16T05:11:54.196Z,33.00
2023-07-16T05:12:26.230Z,34.00
2023-07-16T05:12:58.320Z,36.33
2023-07-16T05:13:30.440Z,41.00
2023-07-16T05:14:02.824Z,44.67
2023-07-16T05:14:44.675Z,50.00
2023-07-16T05:15:17.205Z,54.33
2023-07-16T05:15:49.305Z,53.33
2023-07-16T05:16:21.492Z,52.00
2023-07-16T05:16:53.618Z,51.33
2023-07-16T05:17:27.094Z,51.00
2023-07-16T05:17:59.404Z,51.33
2023-07-16T05:18:31.570Z,54.00
2023-07-16T05:19:03.763Z,56.67
2023-07-16T05:19:35.802Z,56.00
2023-07-16T05:20:08.942Z,60.00
2023-07-16T05:20:41.022Z,68.00
2023-07-16T05:21:13.007Z,66.33
2023-07-16T05:21:45.052Z,63.00
2023-07-16T05:22:17.219Z,61.33
2023-07-16T05:22:49.343Z,61.00
2023-07-16T05:23:21.549Z,60.00
2023-07-16T05:23:53.576Z,58.67
2023-07-16T05:24:25.592Z,55.33
2023-07-16T05:24:57.621Z,52.00
2023-07-16T05:25:32.303Z,50.33
2023-07-16T05:26:04.772Z,50.00
2023-07-16T05:26:36.939Z,50.00
2023-07-16T05:27:09.040Z,50.00
2023-07-16T05:27:41.031Z,49.00
2023-07-16T05:28:13.178Z,49.00
2023-07-16T05:28:45.185Z,49.00
2023-07-16T05:29:17.217Z,49.00
2023-07-16T05:29:49.261Z,49.00
2023-07-16T05:30:21.446Z,49.67
2023-07-16T05:30:59.503Z,50.33
2023-07-16T05:31:31.717Z,51.67
2023-07-16T05:32:04.524Z,56.00
2023-07-16T05:32:38.159Z,57.33
2023-07-16T05:33:10.816Z,56.00
2023-07-16T05:33:42.856Z,54.33
2023-07-16T05:34:14.843Z,52.00
2023-07-16T05:34:46.875Z,50.33
2023-07-16T05:35:18.966Z,50.00
2023-07-16T05:35:51.019Z,49.33
2023-07-16T05:36:23.160Z,49.00
2023-07-16T05:36:55.876Z,48.67
2023-07-16T05:37:28.032Z,47.67
2023-07-16T05:37:59.997Z,46.00
2023-07-16T05:38:32.032Z,45.00
2023-07-16T05:39:04.308Z,45.00
2023-07-16T05:39:36.334Z,45.33
2023-07-16T05:40:09.096Z,46.33
2023-07-16T05:40:41.146Z,47.33
2023-07-16T05:41:13.210Z,47.33
2023-07-16T05:41:45.203Z,47.00
2023-07-16T05:42:17.207Z,46.00
2023-07-16T05:42:49.423Z,46.00
2023-07-16T05:43:21.392Z,46.33
2023-07-16T05:43:53.430Z,47.33
2023-07-16T05:44:25.765Z,48.00
2023-07-16T05:44:57.940Z,48.00
2023-07-16T05:45:30.647Z,49.00
2023-07-16T05:46:02.780Z,49.33
2023-07-16T05:46:34.889Z,56.67
2023-07-16T05:47:07.169Z,60.00
2023-07-16T05:47:40.655Z,61.00
2023-07-16T05:48:12.788Z,61.00
2023-07-16T05:48:45.335Z,62.00
2023-07-16T05:49:17.607Z,61.00
2023-07-16T05:49:50.295Z,59.67
2023-07-16T05:50:22.340Z,57.67
2023-07-16T05:50:54.330Z,57.00
2023-07-16T05:51:26.389Z,57.00
2023-07-16T05:51:58.519Z,55.67
2023-07-16T05:52:31.005Z,53.00
2023-07-16T05:53:03.129Z,51.00
2023-07-16T05:53:35.128Z,49.67
2023-07-16T05:54:07.244Z,48.33
2023-07-16T05:54:39.330Z,47.00
2023-07-16T05:55:11.367Z,47.00
2023-07-16T05:55:43.785Z,46.00
2023-07-16T05:56:16.092Z,44.00
2023-07-16T05:56:48.506Z,44.33
2023-07-16T05:57:20.488Z,45.00
2023-07-16T05:57:52.849Z,47.00
2023-07-16T05:58:24.978Z,49.67
2023-07-16T05:58:57.137Z,54.00
2023-07-16T05:59:29.200Z,58.33
2023-07-16T06:00:01.234Z,61.33
2023-07-16T06:00:33.357Z,62.67
2023-07-16T06:01:05.471Z,63.67
2023-07-16T06:01:37.570Z,62.33
2023-07-16T06:02:09.663Z,61.67
2023-07-16T06:02:43.337Z,60.67
2023-07-16T06:03:15.488Z,58.00
2023-07-16T06:03:50.731Z,51.00
2023-07-16T06:04:22.707Z,40.67
2023-07-16T06:04:54.857Z,37.33
2023-07-16T06:05:26.873Z,38.00
2023-07-16T06:05:58.971Z,38.00
2023-07-16T06:06:31.812Z,38.33
2023-07-16T06:07:04.353Z,39.33
2023-07-16T06:07:36.410Z,40.00
2023-07-16T06:08:08.405Z,40.67
2023-07-16T06:08:40.424Z,43.33
2023-07-16T06:09:12.451Z,45.00
2023-07-16T06:09:44.915Z,45.33
2023-07-16T06:10:17.632Z,46.00
2023-07-16T06:10:50.070Z,46.00
2023-07-16T06:11:22.109Z,46.00
2023-07-16T06:11:54.329Z,46.00
2023-07-16T06:12:26.679Z,46.00
2023-07-16T06:12:58.954Z,46.33
2023-07-16T06:13:31.043Z,52.00
2023-07-16T06:14:03.056Z,57.00
2023-07-16T06:14:35.220Z,57.00
2023-07-16T06:15:08.158Z,56.00
2023-07-16T06:15:40.218Z,55.67
2023-07-16T06:16:12.258Z,55.67
2023-07-16T06:16:44.416Z,56.33
2023-07-16T06:17:16.446Z,65.00
2023-07-16T06:17:49.947Z,73.33
2023-07-16T06:18:22.234Z,68.33
2023-07-16T06:18:54.345Z,66.67
2023-07-16T06:19:26.369Z,65.33
2023-07-16T06:19:58.417Z,63.67
2023-07-16T06:20:30.505Z,61.33
2023-07-16T06:21:02.941Z,60.00
2023-07-16T06:21:35.128Z,60.67
2023-07-16T06:22:07.203Z,61.33
2023-07-16T06:22:39.323Z,61.33
2023-07-16T06:23:11.556Z,61.00
2023-07-16T06:23:43.972Z,61.00
2023-07-16T06:24:17.311Z,63.00
2023-07-16T06:24:49.439Z,68.33
2023-07-16T06:25:21.495Z,74.00
2023-07-16T06:25:55.822Z,73.67
2023-07-16T06:26:27.815Z,76.67
2023-07-16T06:27:00.381Z,73.67
2023-07-16T06:27:32.407Z,72.00
2023-07-16T06:28:05.153Z,70.33
2023-07-16T06:28:37.213Z,70.00
2023-07-16T06:29:09.233Z,71.00
2023-07-16T06:29:41.338Z,71.00
2023-07-16T06:30:13.446Z,70.00
2023-07-16T06:30:45.493Z,72.00
2023-07-16T06:31:17.648Z,85.00
2023-07-16T06:31:59.739Z,81.67
2023-07-16T06:32:31.994Z,78.33
2023-07-16T06:33:05.628Z,78.33
2023-07-16T06:33:37.647Z,79.33
2023-07-16T06:34:09.723Z,77.67
2023-07-16T06:34:41.724Z,77.00
2023-07-16T06:35:13.762Z,76.00
2023-07-16T06:35:46.415Z,74.33
2023-07-16T06:36:18.630Z,71.33
2023-07-16T06:36:51.013Z,67.33
2023-07-16T06:37:23.055Z,67.00
2023-07-16T06:37:55.166Z,66.33
2023-07-16T06:38:29.762Z,66.67
2023-07-16T06:39:02.164Z,65.67
2023-07-16T06:39:34.212Z,64.00
2023-07-16T06:40:07.589Z,63.67
2023-07-16T06:40:39.586Z,64.00
2023-07-16T06:41:11.968Z,65.00
2023-07-16T06:41:44.207Z,65.67
2023-07-16T06:42:16.225Z,67.33
2023-07-16T06:42:48.463Z,70.33
2023-07-16T06:43:26.300Z,71.00
2023-07-16T06:43:58.341Z,71.67
2023-07-16T06:44:30.396Z,73.00
2023-07-16T06:45:02.667Z,77.33
2023-07-16T06:45:34.943Z,82.67
2023-07-16T06:46:07.074Z,91.00
2023-07-16T06:46:39.280Z,102.67
2023-07-16T06:47:11.375Z,91.67
2023-07-16T06:47:43.453Z,88.33
2023-07-16T06:48:16.881Z,84.00
2023-07-16T06:48:48.867Z,73.67
2023-07-16T06:49:24.108Z,64.67
2023-07-16T06:49:56.084Z,65.33
2023-07-16T06:50:28.227Z,72.33
2023-07-16T06:51:00.294Z,83.67
2023-07-16T06:51:32.365Z,83.00
2023-07-16T06:52:05.069Z,82.00
2023-07-16T06:52:37.099Z,83.00
2023-07-16T06:53:09.155Z,82.33
2023-07-16T06:53:41.271Z,83.33
2023-07-16T06:54:13.305Z,89.67
2023-07-16T06:54:45.350Z,95.00
2023-07-16T06:55:17.522Z,92.33
2023-07-16T06:55:50.292Z,88.67
2023-07-16T06:56:22.304Z,85.00
2023-07-16T06:56:55.038Z,85.33
2023-07-16T06:57:27.070Z,88.33
2023-07-16T06:57:59.130Z,87.67
2023-07-16T06:58:38.179Z,87.00
2023-07-16T06:59:12.260Z,87.00
2023-07-16T06:59:51.579Z,86.33
2023-07-16T07:00:27.073Z,86.00
2023-07-16T07:01:02.219Z,86.00
2023-07-16T07:01:34.413Z,86.00
2023-07-16T07:02:07.305Z,85.00
2023-07-16T07:02:39.371Z,85.00
2023-07-16T07:03:11.627Z,93.33
2023-07-16T07:03:45.103Z,118.67
2023-07-16T07:04:17.237Z,121.00
2023-07-16T07:04:49.355Z,107.33
2023-07-16T07:05:21.417Z,103.00
2023-07-16T07:05:53.446Z,101.67
2023-07-16T07:06:26.082Z,99.33